In Rescue
 
Open Full Screen Window  High Contrast Mode
Wind Gusting 22 knots
17
July 13, 2020 9:55 AM CDT
Weather Information
Wind Direction
  150 °
Wind Speed
  17 kt (20 mph)
Wind Gust
  22 kt (25 mph)
Altimeter
29.83 in
Visibility
10 SM
Temperature
23° C
73° F
Dewpoint
17° C
63° F
Humidity
69%
1hr Rain Fall
00.00 in.
24hr Rain Fall
00.00 in.
Sky Condition
Clear
VFR

METAR KDTL 131455Z AUTO 15017G22KT 10SM CLR 23/17 A2983 RMK AO2

FAA Disclaimer: The data displayed is for advisory purposes only and is not to be used for flight planning or operations.